sensor_id;sensor_type;location;lat;lon;timestamp;pressure;altitude;pressure_sealevel;temperature;humidity
70758;BME280;59316;52.964;7.102;2022-10-12T08:59:39;102426.47;;;10.71;nan
70758;BME280;59316;52.964;7.102;2022-10-12T09:04:55;102424.03;;;11.83;nan
70758;BME280;59316;52.964;7.102;2022-10-12T09:15:40;102424.94;;;13.70;nan
70758;BME280;59316;52.964;7.102;2022-10-12T09:20:50;102399.13;;;13.11;nan
70758;BME280;59316;52.964;7.102;2022-10-12T09:26:01;102401.03;;;12.91;nan
70758;BME280;59316;52.964;7.102;2022-10-12T09:32:03;102400.13;;;12.59;nan
70758;BME280;59316;52.964;7.102;2022-10-12T09:36:38;102398.34;;;12.42;nan
70758;BME280;59316;52.964;7.102;2022-10-12T09:41:43;102394.63;;;12.28;nan
70758;BME280;59316;52.964;7.102;2022-10-12T09:46:55;102394.72;;;12.44;nan
70758;BME280;59316;52.964;7.102;2022-10-12T09:51:58;102404.97;;;12.67;nan
70758;BME280;59316;52.964;7.102;2022-10-12T09:57:01;102407.47;;;13.19;nan
70758;BME280;59316;52.964;7.102;2022-10-12T10:07:26;102395.00;;;13.71;nan
70758;BME280;59316;52.964;7.102;2022-10-12T10:12:29;102402.94;;;14.01;nan
70758;BME280;59316;52.964;7.102;2022-10-12T10:17:57;102408.97;;;14.64;nan
70758;BME280;59316;52.964;7.102;2022-10-12T10:23:01;102409.53;;;14.98;nan
70758;BME280;59316;52.964;7.102;2022-10-12T10:28:20;102401.97;;;15.90;nan
70758;BME280;59316;52.964;7.102;2022-10-12T10:33:23;102395.47;;;16.86;nan
70758;BME280;59316;52.964;7.102;2022-10-12T10:43:56;102380.22;;;18.35;nan
70758;BME280;59316;52.964;7.102;2022-10-12T10:49:01;102383.13;;;18.43;nan
70758;BME280;59316;52.964;7.102;2022-10-12T11:05:16;102374.81;;;18.82;nan
70758;BME280;59316;52.964;7.102;2022-10-12T11:10:47;102352.16;;;19.22;nan
70758;BME280;59316;52.964;7.102;2022-10-12T11:16:00;102340.31;;;19.58;nan
70758;BME280;59316;52.964;7.102;2022-10-12T11:21:14;102334.31;;;19.98;nan
70758;BME280;59316;52.964;7.102;2022-10-12T11:31:35;102324.34;;;19.26;nan
70758;BME280;59316;52.964;7.102;2022-10-12T11:36:40;102311.00;;;19.05;nan
70758;BME280;59316;52.964;7.102;2022-10-12T11:42:04;102301.94;;;19.61;nan
70758;BME280;59316;52.964;7.102;2022-10-12T11:52:37;102298.78;;;20.40;nan
70758;BME280;59316;52.964;7.102;2022-10-12T11:57:41;102303.72;;;20.14;nan
70758;BME280;59316;52.964;7.102;2022-10-12T12:02:50;102287.38;;;19.97;nan
70758;BME280;59316;52.964;7.102;2022-10-12T12:07:54;102287.22;;;20.51;nan
70758;BME280;59316;52.964;7.102;2022-10-12T12:18:17;102264.97;;;20.41;nan
70758;BME280;59316;52.964;7.102;2022-10-12T12:23:28;102270.88;;;20.35;nan
70758;BME280;59316;52.964;7.102;2022-10-12T12:28:35;102262.31;;;20.41;nan
70758;BME280;59316;52.964;7.102;2022-10-12T12:33:38;102254.97;;;20.23;nan
70758;BME280;59316;52.964;7.102;2022-10-12T12:43:54;102229.66;;;20.49;nan
70758;BME280;59316;52.964;7.102;2022-10-12T12:48:58;102230.56;;;20.18;nan
70758;BME280;59316;52.964;7.102;2022-10-12T12:54:06;102217.34;;;20.07;nan
70758;BME280;59316;52.964;7.102;2022-10-12T13:20:47;102209.69;;;20.33;nan
70758;BME280;59316;52.964;7.102;2022-10-12T13:25:53;102185.41;;;20.26;nan
70758;BME280;59316;52.964;7.102;2022-10-12T13:31:01;102181.19;;;20.24;nan
70758;BME280;59316;52.964;7.102;2022-10-12T13:41:27;102163.41;;;20.34;nan
70758;BME280;59316;52.964;7.102;2022-10-12T13:51:49;102156.97;;;20.27;nan
70758;BME280;59316;52.964;7.102;2022-10-12T13:57:01;102143.66;;;20.27;nan
70758;BME280;59316;52.964;7.102;2022-10-12T14:02:17;102137.06;;;19.59;nan
70758;BME280;59316;52.964;7.102;2022-10-12T14:07:23;102135.06;;;19.52;nan
70758;BME280;59316;52.964;7.102;2022-10-12T14:12:27;102134.72;;;19.66;nan
70758;BME280;59316;52.964;7.102;2022-10-12T14:17:29;102131.72;;;19.28;nan
70758;BME280;59316;52.964;7.102;2022-10-12T14:22:32;102125.78;;;19.04;nan
70758;BME280;59316;52.964;7.102;2022-10-12T14:27:37;102134.28;;;18.65;nan
70758;BME280;59316;52.964;7.102;2022-10-12T14:32:40;102127.63;;;19.03;nan
70758;BME280;59316;52.964;7.102;2022-10-12T14:37:44;102128.31;;;18.40;nan
70758;BME280;59316;52.964;7.102;2022-10-12T14:42:57;102113.38;;;17.82;nan
70758;BME280;59316;52.964;7.102;2022-10-12T14:48:00;102123.63;;;16.70;nan
70758;BME280;59316;52.964;7.102;2022-10-12T14:53:23;102106.53;;;15.63;nan
70758;BME280;59316;52.964;7.102;2022-10-12T14:58:39;102128.44;;;14.86;nan
70758;BME280;59316;52.964;7.102;2022-10-12T15:03:43;102124.84;;;14.18;nan
70758;BME280;59316;52.964;7.102;2022-10-12T15:08:45;102110.34;;;13.53;nan
70758;BME280;59316;52.964;7.102;2022-10-12T15:13:47;102114.03;;;13.20;nan
70758;BME280;59316;52.964;7.102;2022-10-12T15:18:50;102124.91;;;13.00;nan
70758;BME280;59316;52.964;7.102;2022-10-12T15:23:52;102131.22;;;12.81;nan
70758;BME280;59316;52.964;7.102;2022-10-12T15:28:54;102109.66;;;12.74;nan
70758;BME280;59316;52.964;7.102;2022-10-12T15:33:57;102103.44;;;12.75;nan
70758;BME280;59316;52.964;7.102;2022-10-12T15:38:59;102094.09;;;12.70;nan
70758;BME280;59316;52.964;7.102;2022-10-12T15:44:01;102078.69;;;12.48;nan
70758;BME280;59316;52.964;7.102;2022-10-12T15:49:04;102087.88;;;12.24;nan
70758;BME280;59316;52.964;7.102;2022-10-12T15:54:06;102074.47;;;11.97;nan
70758;BME280;59316;52.964;7.102;2022-10-12T15:59:08;102069.19;;;11.63;nan
70758;BME280;59316;52.964;7.102;2022-10-12T16:04:12;102066.84;;;11.41;nan
